createdAt,value
2019-03-29T00:00:53.818Z,93.40
2019-03-29T00:03:22.401Z,93.50
2019-03-29T00:05:50.876Z,93.70
2019-03-29T00:08:19.410Z,93.70
2019-03-29T00:10:48.312Z,93.60
2019-03-29T00:13:16.867Z,93.60
2019-03-29T00:15:45.830Z,93.40
2019-03-29T00:18:15.132Z,93.50
2019-03-29T00:20:43.752Z,93.50
2019-03-29T00:23:12.478Z,93.50
2019-03-29T00:25:41.178Z,93.60
2019-03-29T00:28:10.944Z,93.50
2019-03-29T00:30:40.116Z,93.60
2019-03-29T00:33:08.476Z,93.80
2019-03-29T00:35:36.725Z,94.00
2019-03-29T00:38:04.849Z,94.00
2019-03-29T00:40:33.561Z,93.90
2019-03-29T00:43:01.948Z,94.00
2019-03-29T00:45:30.461Z,93.80
2019-03-29T00:47:59.725Z,93.80
2019-03-29T00:50:28.453Z,93.80
2019-03-29T00:52:56.908Z,93.80
2019-03-29T00:55:25.285Z,93.90
2019-03-29T00:57:54.617Z,93.90
2019-03-29T01:00:23.517Z,94.10
2019-03-29T01:02:54.097Z,94.20
2019-03-29T01:05:22.545Z,94.20
2019-03-29T01:07:51.117Z,94.30
2019-03-29T01:10:19.856Z,94.20
2019-03-29T01:12:48.671Z,94.20
2019-03-29T01:15:17.324Z,94.30
2019-03-29T01:17:46.110Z,94.20
2019-03-29T01:20:14.872Z,94.20
2019-03-29T01:22:43.409Z,94.10
2019-03-29T01:25:12.182Z,94.00
2019-03-29T01:27:41.003Z,93.90
2019-03-29T01:30:09.705Z,93.90
2019-03-29T01:32:38.080Z,93.90
2019-03-29T01:35:08.338Z,93.90
2019-03-29T01:37:37.407Z,93.90
2019-03-29T01:40:06.964Z,94.00
2019-03-29T01:42:35.720Z,93.90
2019-03-29T01:45:05.438Z,93.80
2019-03-29T01:47:33.916Z,93.90
2019-03-29T01:50:02.354Z,93.90
2019-03-29T01:52:31.635Z,93.80
2019-03-29T01:55:00.745Z,93.90
2019-03-29T01:57:29.059Z,94.00
2019-03-29T01:59:57.558Z,94.10
2019-03-29T02:02:26.469Z,94.00
2019-03-29T02:04:55.294Z,94.00
2019-03-29T02:07:23.678Z,93.90
2019-03-29T02:09:51.820Z,94.00
2019-03-29T02:12:20.579Z,94.00
2019-03-29T02:14:50.081Z,93.90
2019-03-29T02:17:19.132Z,93.90
2019-03-29T02:19:47.549Z,93.80
2019-03-29T02:22:15.857Z,93.90
2019-03-29T02:24:44.485Z,93.80
2019-03-29T02:27:12.620Z,93.70
2019-03-29T02:29:41.305Z,93.70
2019-03-29T02:32:09.728Z,93.60
2019-03-29T02:34:38.023Z,93.70
2019-03-29T02:37:06.887Z,93.80
2019-03-29T02:39:35.951Z,93.80
2019-03-29T02:42:04.233Z,93.90
2019-03-29T02:44:34.720Z,94.00
2019-03-29T02:47:02.682Z,93.90
2019-03-29T02:49:30.926Z,93.80
2019-03-29T02:51:59.064Z,93.80
2019-03-29T02:54:27.394Z,94.10
2019-03-29T02:56:55.585Z,93.90
2019-03-29T02:59:25.599Z,93.90
2019-03-29T03:01:53.933Z,93.90
2019-03-29T03:04:22.326Z,93.80
2019-03-29T03:06:51.035Z,93.80
2019-03-29T03:09:19.430Z,93.80
2019-03-29T03:11:47.834Z,93.80
2019-03-29T03:14:18.354Z,93.80
2019-03-29T03:16:47.596Z,93.80
2019-03-29T03:19:16.169Z,93.90
2019-03-29T03:21:44.490Z,93.90
2019-03-29T03:24:13.084Z,93.90
2019-03-29T03:26:41.550Z,93.80
2019-03-29T03:29:10.060Z,93.70
2019-03-29T03:31:38.626Z,93.70
2019-03-29T03:34:06.927Z,93.70
2019-03-29T03:36:35.311Z,93.90
2019-03-29T03:39:10.898Z,94.00
2019-03-29T03:41:39.480Z,94.10
2019-03-29T03:44:07.680Z,94.40
2019-03-29T03:46:37.570Z,94.00
2019-03-29T03:49:05.621Z,94.10
2019-03-29T03:51:44.072Z,94.10
2019-03-29T03:54:13.302Z,94.20
2019-03-29T03:56:42.489Z,94.10
2019-03-29T03:59:10.796Z,94.20
2019-03-29T04:01:39.169Z,94.40
2019-03-29T04:04:08.857Z,94.30
2019-03-29T04:06:37.285Z,94.30
2019-03-29T04:09:06.395Z,94.30
2019-03-29T04:11:34.781Z,94.20
2019-03-29T04:14:03.186Z,94.10
2019-03-29T04:16:31.553Z,94.10
2019-03-29T04:18:59.707Z,94.20
2019-03-29T04:21:28.068Z,94.30
2019-03-29T04:23:56.958Z,94.50
2019-03-29T04:26:25.325Z,94.40
2019-03-29T04:29:03.949Z,94.50
2019-03-29T04:31:23.766Z,94.30
2019-03-29T04:33:52.433Z,94.30
2019-03-29T04:36:20.610Z,94.20
2019-03-29T04:38:49.098Z,94.40
2019-03-29T04:41:17.380Z,94.30
2019-03-29T04:43:45.450Z,94.40
2019-03-29T04:46:13.701Z,94.40
2019-03-29T04:48:41.902Z,95.10
2019-03-29T04:51:10.151Z,95.30
2019-03-29T04:53:38.400Z,95.40
2019-03-29T04:56:06.682Z,95.60
2019-03-29T04:58:35.081Z,95.70
2019-03-29T05:01:03.432Z,95.80
2019-03-29T05:03:31.554Z,95.90
2019-03-29T05:06:00.053Z,95.90
2019-03-29T05:08:28.289Z,96.00
2019-03-29T05:10:56.513Z,96.20
2019-03-29T05:13:24.685Z,96.30
2019-03-29T05:15:53.117Z,96.20
2019-03-29T05:18:21.408Z,96.00
2019-03-29T05:20:49.687Z,95.80
2019-03-29T05:23:18.168Z,95.70
2019-03-29T05:25:46.518Z,95.60
2019-03-29T05:28:14.956Z,95.50
2019-03-29T05:30:43.566Z,95.50
2019-03-29T05:33:11.815Z,95.40
2019-03-29T05:35:40.554Z,95.50
2019-03-29T05:38:09.379Z,95.10
2019-03-29T05:40:37.750Z,95.00
2019-03-29T05:43:08.342Z,95.20
2019-03-29T05:45:36.829Z,95.30
2019-03-29T05:48:05.933Z,95.10
2019-03-29T05:50:36.779Z,95.60
2019-03-29T05:53:05.018Z,95.30
2019-03-29T05:55:33.477Z,95.20
2019-03-29T05:58:02.582Z,94.90
2019-03-29T06:00:30.899Z,95.10
2019-03-29T06:02:59.414Z,95.10
2019-03-29T06:05:27.585Z,94.50
2019-03-29T06:07:58.513Z,94.50
2019-03-29T06:10:27.419Z,94.30
2019-03-29T06:12:55.774Z,94.30
2019-03-29T06:15:24.698Z,94.50
2019-03-29T06:17:53.478Z,94.50
2019-03-29T06:20:22.789Z,94.50
2019-03-29T06:22:53.857Z,94.60
2019-03-29T06:25:25.331Z,94.40
2019-03-29T06:28:03.646Z,94.50
2019-03-29T06:30:38.083Z,94.60
2019-03-29T06:33:15.616Z,94.70
2019-03-29T06:35:43.395Z,94.50
2019-03-29T06:38:20.581Z,94.10
2019-03-29T06:41:01.732Z,93.90
2019-03-29T06:43:22.709Z,93.60
2019-03-29T06:45:53.994Z,93.30
2019-03-29T06:48:23.029Z,93.60
2019-03-29T06:50:51.766Z,93.80
2019-03-29T06:53:19.957Z,94.00
2019-03-29T06:55:49.517Z,93.90
2019-03-29T06:58:20.826Z,93.80
2019-03-29T07:00:49.126Z,93.80
2019-03-29T07:03:21.443Z,93.70
2019-03-29T07:05:52.164Z,93.90
2019-03-29T07:08:27.383Z,94.10
2019-03-29T07:10:54.304Z,94.30
2019-03-29T07:13:24.680Z,94.20
2019-03-29T07:16:02.024Z,93.80
2019-03-29T07:18:40.859Z,93.60
2019-03-29T07:21:20.900Z,93.40
2019-03-29T07:23:43.010Z,93.20
2019-03-29T07:26:20.800Z,92.90
2019-03-29T07:28:46.440Z,92.60
2019-03-29T07:31:14.586Z,92.40
2019-03-29T07:33:42.828Z,92.30
2019-03-29T07:36:11.067Z,92.10
2019-03-29T07:38:54.599Z,91.90
2019-03-29T07:41:39.574Z,91.70
2019-03-29T07:44:15.306Z,91.90
2019-03-29T07:46:58.177Z,91.50
2019-03-29T07:49:39.187Z,91.20
2019-03-29T07:52:08.105Z,91.10
2019-03-29T07:54:51.495Z,91.20
2019-03-29T07:57:22.585Z,91.30
2019-03-29T07:59:50.855Z,90.90
2019-03-29T08:02:19.167Z,91.10
2019-03-29T08:04:47.371Z,90.50
2019-03-29T08:07:27.259Z,90.60
2019-03-29T08:09:51.385Z,90.10
2019-03-29T08:12:19.729Z,90.10
2019-03-29T08:14:49.145Z,90.20
2019-03-29T08:17:38.275Z,90.50
2019-03-29T08:20:44.093Z,90.70
2019-03-29T08:23:23.921Z,90.20
2019-03-29T08:25:52.286Z,89.90
2019-03-29T08:28:33.228Z,89.70
2019-03-29T08:31:11.935Z,90.00
2019-03-29T08:33:54.360Z,90.00
2019-03-29T08:36:31.354Z,89.40
2019-03-29T08:39:27.840Z,88.80
2019-03-29T08:42:00.101Z,88.50
2019-03-29T08:44:41.604Z,87.20
2019-03-29T08:47:33.402Z,86.40
2019-03-29T08:50:19.861Z,85.80
2019-03-29T08:53:39.950Z,86.60
2019-03-29T08:56:33.652Z,87.00
2019-03-29T09:02:25.567Z,85.00
2019-03-29T09:05:20.298Z,83.30
2019-03-29T09:08:26.023Z,82.30
2019-03-29T09:11:16.382Z,81.60
2019-03-29T09:14:17.310Z,81.30
2019-03-29T09:17:06.321Z,82.80
2019-03-29T09:19:50.731Z,82.90
2019-03-29T09:25:40.595Z,80.90
2019-03-29T09:28:27.802Z,81.90
2019-03-29T09:31:10.328Z,82.00
2019-03-29T09:33:49.345Z,79.80
2019-03-29T09:36:52.987Z,80.80
2019-03-29T09:39:49.418Z,81.10
2019-03-29T09:42:28.892Z,80.20
2019-03-29T09:45:07.036Z,78.00
2019-03-29T09:48:15.749Z,79.30
2019-03-29T09:50:50.881Z,78.90
2019-03-29T09:53:22.935Z,78.80
2019-03-29T09:55:53.484Z,78.80
2019-03-29T09:58:44.765Z,79.10
2019-03-29T10:01:34.825Z,78.80
2019-03-29T10:04:13.057Z,78.50
2019-03-29T10:06:52.084Z,78.60
2019-03-29T10:09:22.056Z,77.20
2019-03-29T10:12:13.309Z,76.00
2019-03-29T10:14:47.038Z,76.40
2019-03-29T10:17:40.810Z,75.80
2019-03-29T10:20:36.579Z,75.70
2019-03-29T10:23:28.966Z,74.20
2019-03-29T10:26:00.845Z,74.70
2019-03-29T10:29:01.142Z,73.00
2019-03-29T10:31:43.152Z,73.10
2019-03-29T10:37:12.261Z,72.60
2019-03-29T10:40:06.718Z,72.10
2019-03-29T10:42:57.065Z,71.00
2019-03-29T10:46:17.364Z,71.70
2019-03-29T10:48:51.921Z,70.90
2019-03-29T10:52:03.147Z,70.80
2019-03-29T10:54:24.412Z,73.40
2019-03-29T10:57:02.356Z,70.50
2019-03-29T10:59:36.816Z,71.20
2019-03-29T11:02:05.471Z,71.20
2019-03-29T11:04:40.950Z,71.50
2019-03-29T11:07:19.091Z,70.90
2019-03-29T11:09:53.490Z,71.80
2019-03-29T11:12:31.723Z,69.80
2019-03-29T11:15:07.201Z,65.50
2019-03-29T11:17:42.958Z,66.80
2019-03-29T11:20:50.438Z,66.20
2019-03-29T11:23:22.982Z,69.20
2019-03-29T11:26:30.463Z,69.10
2019-03-29T11:29:28.396Z,69.50
2019-03-29T11:32:08.683Z,68.90
2019-03-29T11:34:47.501Z,69.50
2019-03-29T11:37:45.098Z,69.80
2019-03-29T11:40:27.225Z,69.80
2019-03-29T11:43:26.123Z,68.30
2019-03-29T11:45:58.244Z,68.40
2019-03-29T11:48:32.472Z,68.60
2019-03-29T11:51:01.184Z,67.90
2019-03-29T11:53:41.961Z,68.40
2019-03-29T11:56:20.934Z,66.90
2019-03-29T11:58:59.181Z,67.50
2019-03-29T12:01:29.677Z,66.90
2019-03-29T12:04:13.841Z,67.10
2019-03-29T12:06:41.771Z,66.00
2019-03-29T12:09:15.175Z,65.10
2019-03-29T12:11:47.980Z,65.90
2019-03-29T12:14:27.925Z,67.50
2019-03-29T12:17:09.353Z,68.10
2019-03-29T12:19:49.051Z,68.10
2019-03-29T12:22:16.050Z,67.30
2019-03-29T12:24:46.426Z,67.10
2019-03-29T12:27:18.244Z,68.40
2019-03-29T12:29:53.742Z,67.30
2019-03-29T12:32:25.174Z,67.00
2019-03-29T12:35:04.369Z,67.60
2019-03-29T12:37:35.179Z,68.00
2019-03-29T12:40:07.371Z,67.40
2019-03-29T12:43:18.087Z,67.70
2019-03-29T12:46:04.452Z,65.70
2019-03-29T12:49:02.622Z,64.80
2019-03-29T12:51:27.361Z,64.50
2019-03-29T12:57:25.452Z,64.40
2019-03-29T13:00:01.183Z,64.40
2019-03-29T13:03:00.161Z,64.80
2019-03-29T13:09:33.462Z,65.80
2019-03-29T13:12:40.585Z,65.80
2019-03-29T13:15:38.127Z,65.50
2019-03-29T13:19:24.873Z,65.70
2019-03-29T13:21:58.800Z,65.80
2019-03-29T13:25:25.857Z,65.40
2019-03-29T13:28:27.165Z,65.40
2019-03-29T13:31:35.711Z,64.00
2019-03-29T13:34:23.352Z,65.20
2019-03-29T13:37:52.071Z,66.10
2019-03-29T13:43:57.319Z,66.60
2019-03-29T13:46:26.763Z,66.40
2019-03-29T13:54:51.235Z,65.50
2019-03-29T13:57:33.770Z,65.20
2019-03-29T14:00:03.112Z,64.50
2019-03-29T14:02:36.288Z,64.70
2019-03-29T14:05:21.532Z,64.90
2019-03-29T14:08:16.050Z,65.40
2019-03-29T14:11:24.029Z,66.00
2019-03-29T14:14:05.848Z,65.30
2019-03-29T14:16:39.856Z,65.50
2019-03-29T14:19:11.105Z,65.00
2019-03-29T14:21:40.062Z,65.00
2019-03-29T14:24:15.518Z,64.90
2019-03-29T14:26:41.813Z,64.70
2019-03-29T14:29:10.441Z,64.20
2019-03-29T14:31:39.157Z,64.70
2019-03-29T14:34:09.612Z,64.30
2019-03-29T14:36:37.818Z,65.20
2019-03-29T14:39:06.748Z,64.40
2019-03-29T14:41:34.893Z,63.70
2019-03-29T14:44:03.212Z,63.20
2019-03-29T14:46:31.317Z,63.70
2019-03-29T14:48:59.360Z,64.20
2019-03-29T14:51:27.614Z,63.50
2019-03-29T14:53:55.631Z,63.00
2019-03-29T14:56:23.808Z,64.00
2019-03-29T14:58:51.824Z,63.50
2019-03-29T15:01:20.566Z,63.20
2019-03-29T15:03:48.622Z,63.80
2019-03-29T15:06:16.651Z,61.90
2019-03-29T15:08:44.878Z,62.00
2019-03-29T15:11:22.113Z,62.20
2019-03-29T15:13:43.433Z,61.70
2019-03-29T15:16:12.143Z,62.00
2019-03-29T15:18:40.353Z,62.80
2019-03-29T15:21:10.717Z,62.10
2019-03-29T15:23:38.924Z,62.30
2019-03-29T15:26:07.527Z,62.90
2019-03-29T15:28:37.438Z,62.30
2019-03-29T15:31:05.768Z,62.10
2019-03-29T15:33:33.988Z,62.20
2019-03-29T15:36:02.081Z,62.50
2019-03-29T15:38:31.345Z,62.90
2019-03-29T15:40:59.663Z,62.70
2019-03-29T15:43:27.995Z,62.50
2019-03-29T15:45:56.242Z,61.80
2019-03-29T15:48:24.419Z,62.30
2019-03-29T15:50:53.145Z,62.50
2019-03-29T15:53:21.510Z,62.50
2019-03-29T15:55:49.814Z,61.40
2019-03-29T15:58:18.032Z,61.10
2019-03-29T16:00:46.246Z,60.60
2019-03-29T16:03:14.645Z,61.10
2019-03-29T16:05:42.918Z,61.30
2019-03-29T16:08:13.475Z,61.10
2019-03-29T16:10:55.204Z,60.30
2019-03-29T16:13:23.537Z,59.30
2019-03-29T16:15:51.736Z,59.20
2019-03-29T16:18:19.822Z,58.90
2019-03-29T16:20:47.908Z,58.90
2019-03-29T16:23:16.308Z,59.00
2019-03-29T16:25:44.672Z,59.20
2019-03-29T16:28:12.893Z,59.50
2019-03-29T16:30:41.413Z,59.50
2019-03-29T16:33:13.784Z,59.50
2019-03-29T16:35:41.836Z,59.80
2019-03-29T16:38:10.053Z,59.50
2019-03-29T16:40:38.391Z,59.80
2019-03-29T16:43:06.462Z,59.80
2019-03-29T16:45:47.180Z,59.90
2019-03-29T16:48:06.675Z,60.30
2019-03-29T16:50:34.797Z,60.00
2019-03-29T16:53:02.903Z,60.20
2019-03-29T16:55:30.932Z,60.80
2019-03-29T16:57:59.061Z,61.10
2019-03-29T17:00:27.121Z,61.30
2019-03-29T17:02:55.567Z,61.20
2019-03-29T17:05:23.876Z,61.70
2019-03-29T17:08:04.978Z,60.60
2019-03-29T17:10:35.315Z,60.40
2019-03-29T17:13:06.138Z,60.50
2019-03-29T17:15:44.311Z,60.70
2019-03-29T17:18:40.159Z,60.80
2019-03-29T17:21:07.386Z,60.70
2019-03-29T17:23:35.704Z,61.50
2019-03-29T17:26:04.370Z,62.30
2019-03-29T17:28:40.651Z,63.20
2019-03-29T17:31:10.486Z,63.20
2019-03-29T17:33:38.802Z,63.10
2019-03-29T17:36:06.877Z,63.40
2019-03-29T17:38:34.917Z,63.70
2019-03-29T17:41:03.051Z,63.70
2019-03-29T17:43:31.052Z,64.00
2019-03-29T17:45:59.076Z,63.90
2019-03-29T17:48:27.104Z,64.40
2019-03-29T17:50:55.499Z,64.40
2019-03-29T17:53:25.228Z,64.70
2019-03-29T17:55:55.529Z,64.80
2019-03-29T17:58:23.630Z,65.30
2019-03-29T18:00:51.653Z,65.50
2019-03-29T18:03:23.913Z,65.70
2019-03-29T18:05:51.983Z,65.90
2019-03-29T18:08:19.996Z,65.80
2019-03-29T18:11:12.795Z,65.80
2019-03-29T18:13:41.347Z,65.70
2019-03-29T18:16:09.614Z,65.80
2019-03-29T18:18:45.562Z,66.20
2019-03-29T18:21:13.782Z,66.20
2019-03-29T18:23:48.213Z,66.50
2019-03-29T18:26:19.293Z,66.90
2019-03-29T18:28:47.826Z,67.10
2019-03-29T18:31:17.505Z,67.60
2019-03-29T18:33:45.512Z,68.00
2019-03-29T18:36:21.411Z,68.20
2019-03-29T18:38:49.697Z,68.70
2019-03-29T18:41:17.739Z,68.80
2019-03-29T18:43:45.848Z,68.90
2019-03-29T18:46:14.138Z,69.20
2019-03-29T18:48:42.121Z,69.50
2019-03-29T18:51:10.138Z,69.90
2019-03-29T18:53:38.252Z,70.20
2019-03-29T18:56:06.264Z,70.30
2019-03-29T18:58:34.296Z,70.40
2019-03-29T19:01:05.669Z,70.50
2019-03-29T19:03:33.672Z,70.60
2019-03-29T19:06:05.031Z,70.70
2019-03-29T19:08:36.210Z,70.80
2019-03-29T19:11:06.201Z,71.40
2019-03-29T19:13:34.662Z,71.50
2019-03-29T19:16:04.480Z,71.70
2019-03-29T19:18:32.984Z,71.90
2019-03-29T19:21:05.001Z,72.50
2019-03-29T19:23:35.588Z,72.70
2019-03-29T19:26:05.754Z,73.00
2019-03-29T19:28:42.076Z,73.10
2019-03-29T19:31:12.376Z,73.20
2019-03-29T19:33:40.452Z,73.60
2019-03-29T19:36:10.877Z,74.00
2019-03-29T19:38:38.968Z,74.70
2019-03-29T19:41:07.090Z,74.80
2019-03-29T19:43:35.183Z,75.60
2019-03-29T19:46:03.898Z,75.50
2019-03-29T19:48:34.439Z,76.10
2019-03-29T19:51:02.460Z,76.60
2019-03-29T19:53:30.544Z,77.30
2019-03-29T19:55:58.575Z,77.80
2019-03-29T19:58:26.841Z,78.20
2019-03-29T20:00:54.997Z,78.70
2019-03-29T20:03:23.550Z,79.10
2019-03-29T20:05:51.566Z,79.70
2019-03-29T20:08:19.552Z,80.20
2019-03-29T20:10:48.393Z,80.60
2019-03-29T20:13:16.611Z,80.80
2019-03-29T20:15:44.611Z,80.70
2019-03-29T20:18:12.609Z,80.70
2019-03-29T20:20:40.733Z,80.50
2019-03-29T20:23:08.711Z,80.50
2019-03-29T20:25:37.588Z,80.50
2019-03-29T20:28:07.032Z,80.80
2019-03-29T20:30:35.312Z,80.80
2019-03-29T20:33:04.574Z,80.80
2019-03-29T20:35:35.890Z,80.70
2019-03-29T20:38:04.767Z,80.50
2019-03-29T20:40:32.898Z,80.30
2019-03-29T20:43:01.622Z,80.40
2019-03-29T20:45:31.085Z,80.50
2019-03-29T20:47:59.285Z,80.10
2019-03-29T20:50:30.840Z,80.20
2019-03-29T20:53:08.531Z,80.90
2019-03-29T20:55:38.659Z,80.40
2019-03-29T20:58:06.741Z,80.80
2019-03-29T21:00:34.859Z,80.80
2019-03-29T21:03:03.195Z,81.00
2019-03-29T21:05:31.308Z,80.90
2019-03-29T21:08:09.500Z,81.20
2019-03-29T21:10:37.775Z,81.60
2019-03-29T21:13:07.322Z,81.80
2019-03-29T21:15:37.130Z,82.30
2019-03-29T21:18:05.272Z,82.30
2019-03-29T21:20:33.447Z,83.00
2019-03-29T21:23:02.125Z,82.50
2019-03-29T21:25:30.391Z,82.40
2019-03-29T21:27:59.487Z,82.60
2019-03-29T21:30:27.574Z,82.60
2019-03-29T21:32:56.029Z,82.80
2019-03-29T21:35:24.547Z,83.40
2019-03-29T21:37:55.647Z,83.70
2019-03-29T21:40:32.246Z,84.00
2019-03-29T21:43:02.140Z,83.50
2019-03-29T21:45:30.509Z,83.40
2019-03-29T21:48:16.053Z,83.80
2019-03-29T21:50:31.425Z,84.20
2019-03-29T21:52:59.917Z,84.40
2019-03-29T21:55:28.038Z,84.50
2019-03-29T21:57:56.394Z,84.60
2019-03-29T22:00:25.383Z,84.80
2019-03-29T22:02:53.704Z,84.70
2019-03-29T22:05:21.786Z,84.80
2019-03-29T22:07:50.266Z,84.90
2019-03-29T22:10:18.451Z,84.90
2019-03-29T22:12:47.243Z,85.00
2019-03-29T22:15:16.439Z,85.10
2019-03-29T22:17:44.732Z,85.00
2019-03-29T22:20:13.156Z,84.90
2019-03-29T22:22:44.397Z,85.10
2019-03-29T22:25:12.757Z,85.10
2019-03-29T22:27:41.219Z,85.50
2019-03-29T22:30:13.460Z,85.30
2019-03-29T22:32:41.860Z,85.50
2019-03-29T22:35:10.151Z,85.60
2019-03-29T22:37:38.614Z,85.70
2019-03-29T22:40:07.446Z,85.90
2019-03-29T22:42:38.866Z,86.10
2019-03-29T22:45:07.490Z,86.10
2019-03-29T22:47:35.748Z,86.20
2019-03-29T22:50:05.414Z,86.50
2019-03-29T22:52:33.798Z,87.00
2019-03-29T22:55:02.229Z,86.80
2019-03-29T22:57:30.419Z,87.30
2019-03-29T22:59:58.731Z,87.60
2019-03-29T23:02:27.425Z,87.80
2019-03-29T23:04:55.605Z,87.70
2019-03-29T23:07:23.931Z,88.90
2019-03-29T23:09:52.101Z,89.30
2019-03-29T23:12:20.336Z,89.50
2019-03-29T23:14:48.698Z,89.50
2019-03-29T23:17:17.186Z,89.70
2019-03-29T23:19:45.559Z,89.80
2019-03-29T23:22:14.348Z,90.00
2019-03-29T23:24:42.676Z,89.90
2019-03-29T23:27:11.028Z,90.00
2019-03-29T23:29:39.645Z,90.00
2019-03-29T23:32:15.490Z,90.10
2019-03-29T23:34:43.889Z,90.20
2019-03-29T23:37:12.159Z,90.10
2019-03-29T23:39:40.382Z,90.20
2019-03-29T23:42:08.577Z,90.20
2019-03-29T23:44:37.257Z,90.30
2019-03-29T23:47:05.754Z,90.40
2019-03-29T23:49:33.800Z,90.50
2019-03-29T23:52:01.772Z,90.80
2019-03-29T23:54:29.776Z,90.90
2019-03-29T23:57:00.797Z,91.00
2019-03-29T23:59:28.776Z,91.00
